Search for airport 
image banner adimage banner adimage banner ad
image banner ad

2PA1 - Boehm's Field

Located in Lackawaxen, United States

ICAO - 2PA1, IATA -

Data provided by Airmate  

General information

Coordinates: N41°26'35" W75°0'29"
Elevation is 1330 feet MSL.
Magnetic variation is -12° East
View others Airports in Pennsylvania

Operational data

Special qualification required
Current time UTC:
Current local time:
Weather at : KMSV - Sullivan County Intl ( 34 km )
METAR: KMSV 182256Z AUTO 32007KT 10SM CLR 23/05 A3026 RMK AO2 SLP244 T02330050
View NOTAMs / SUP AIP / TFR affecting this airport [VIEW]
Communications frequencies: [VIEW]

Runways:

RWY identifierQFULength (ft)Width (ft)SurfaceLDA (ft)
NE2000140GRASS
SW2000140GRASS

Airport contact information

Address: Lackawaxen United States

Satellite view of 2PA1